SOHO CELIAS Proton Monitor
Solar Wind Parameters for Carrington Rotation 2012 (hour averages)


Listed Parameters:

Measurement time (Year, Day of Year, Hour, Minute, Second)
Proton speed [km/sec]
Proton density [protons per cubic centimeter]
Most probable proton thermal speed [km/sec]
Arrival direction [degrees from north-south, with + meaning FROM the south).
(SPEED=-1 means NOT AVAILABLE)

SOHO spacecraft coordinates: based on SOHO PRE orbit files
GSE X, Y, Z [Earth Radii] 1 RE == 6378 km
Heliocentric Range [106 km],
Heliographic Latitude and Longitude [deg].

FORMAT=(1X,I2,1X,I3,1X,I2,1X,I2,1X,I2,F7.1,3F7.2,3X,3F7.1,F7.1,F7.2,F8.2)



                              CELIAS/MTOF/PM DATA                      SOHO ORBIT DATA              
 InSitu_Start__Time       [km/s]  [cm-3] [km/s]  [deg]      [Re]   [Re]   [Re]  [Mkm]  [deg]  [deg]
 YY MON DY DOY:HH:MM:SS   SPEED     Np     Vth    N/S      GSE_X  GSE_Y  GSE_Z  RANGE  HGLAT  HGLONG
 04 JAN 13  13:12:00:00     568   11.8      36   -3.0      194.4   50.5   14.1  145.9   -4.3   359.5
 04 JAN 13  13:13:00:00     567   10.5      35   -1.8      194.4   50.6   14.1  145.9   -4.3   358.9
 04 JAN 13  13:14:00:00     563   10.4      34   -2.1      194.4   50.8   14.0  145.9   -4.3   358.4
 04 JAN 13  13:15:00:00     571   11.2      37   -2.1      194.5   50.9   14.0  145.9   -4.3   357.8
 04 JAN 13  13:16:00:00     560   10.6      33   -1.7      194.5   51.0   14.0  145.9   -4.3   357.3
 04 JAN 13  13:17:00:00     561    9.7      33   -2.3      194.5   51.2   14.0  145.9   -4.3   356.7
 04 JAN 13  13:18:00:00     560    8.7      33   -2.0      194.5   51.3   14.0  145.9   -4.3   356.2
 04 JAN 13  13:19:00:00     556    7.5      31   -1.7      194.5   51.5   14.0  145.9   -4.3   355.6
 04 JAN 13  13:20:00:00     555    6.6      34   -1.7      194.6   51.6   13.9  145.9   -4.3   355.1
 04 JAN 13  13:21:00:00     566    8.0      36   -3.0      194.6   51.7   13.9  145.9   -4.3   354.5
 04 JAN 13  13:22:00:00     560    8.1      33   -2.9      194.6   51.9   13.9  145.9   -4.3   354.0
 04 JAN 13  13:23:00:00     552    8.0      29   -3.0      194.6   52.0   13.9  145.9   -4.3   353.4
 04 JAN 14  14:00:00:00     552    6.4      31   -2.5      194.7   52.1   13.9  145.9   -4.3   352.9
 04 JAN 14  14:01:00:00     557    5.9      39   -2.7      194.7   52.3   13.9  145.9   -4.4   352.3
 04 JAN 14  14:02:00:00     566    2.4      42   -3.7      194.7   52.4   13.8  145.9   -4.4   351.8
 04 JAN 14  14:03:00:00     547    2.1      46   -0.6      194.7   52.5   13.8  145.9   -4.4   351.2
 04 JAN 14  14:04:00:00     538    2.8      46   -2.0      194.7   52.7   13.8  145.9   -4.4   350.7
 04 JAN 14  14:05:00:00     533    3.4      46   -3.1      194.7   52.8   13.8  145.9   -4.4   350.1
 04 JAN 14  14:06:00:00     560    3.6      45   -3.8      194.8   53.0   13.8  145.9   -4.4   349.6
 04 JAN 14  14:07:00:00     563    4.3      40   -4.7      194.8   53.1   13.8  145.9   -4.4   349.0
 04 JAN 14  14:08:00:00     547    5.0      40   -2.9      194.8   53.2   13.7  145.9   -4.4   348.5
 04 JAN 14  14:09:00:00     545    5.1      39   -2.6      194.8   53.4   13.7  145.9   -4.4   347.9
 04 JAN 14  14:10:00:00     524    2.5      44    0.4      194.8   53.5   13.7  145.9   -4.4   347.4
 04 JAN 14  14:11:00:00     510    2.8      43   -0.7      194.9   53.6   13.7  145.9   -4.4   346.8
 04 JAN 14  14:12:00:00     496    3.7      40   -0.7      194.9   53.8   13.7  145.9   -4.4   346.3
 04 JAN 14  14:13:00:00     483    3.6      36    0.2      194.9   53.9   13.6  145.9   -4.4   345.7
 04 JAN 14  14:14:00:00     469    3.8      33    1.3      194.9   54.1   13.6  145.9   -4.4   345.2
 04 JAN 14  14:15:00:00     466    4.3      32    2.1      194.9   54.2   13.6  145.9   -4.4   344.6
 04 JAN 14  14:16:00:00     465    4.1      35    1.7      195.0   54.3   13.6  145.9   -4.4   344.1
 04 JAN 14  14:17:00:00     466    4.4      36    2.4      195.0   54.5   13.6  145.9   -4.4   343.5
 04 JAN 14  14:18:00:00     467    3.6      39   -0.6      195.0   54.6   13.6  145.9   -4.4   343.0
 04 JAN 14  14:19:00:00     462    3.5      38   -0.7      195.0   54.7   13.5  145.9   -4.4   342.4
 04 JAN 14  14:20:00:00     472    4.5      38   -1.8      195.0   54.9   13.5  145.9   -4.4   341.9
 04 JAN 14  14:21:00:00     497    5.1      41   -1.4      195.1   55.0   13.5  145.9   -4.4   341.3
 04 JAN 14  14:22:00:00     510    4.8      42   -5.1      195.1   55.1   13.5  145.9   -4.4   340.8
 04 JAN 14  14:23:00:00     497    5.1      39   -6.3      195.1   55.3   13.5  145.9   -4.4   340.2
 04 JAN 15  15:00:00:00     491    4.0      40   -4.0      195.1   55.4   13.4  145.9   -4.5   339.7
 04 JAN 15  15:01:00:00     455    3.1      37    0.7      195.1   55.6   13.4  145.9   -4.5   339.1
 04 JAN 15  15:02:00:00     460    2.9      36   -0.2      195.2   55.7   13.4  145.9   -4.5   338.6
 04 JAN 15  15:03:00:00     446    2.8      38   -3.1      195.2   55.8   13.4  145.9   -4.5   338.0
 04 JAN 15  15:04:00:00     450    3.0      39   -2.6      195.2   56.0   13.4  145.9   -4.5   337.5
 04 JAN 15  15:05:00:00     454    4.6      36   -6.7      195.2   56.1   13.4  145.9   -4.5   336.9
 04 JAN 15  15:06:00:00     496    5.2      41   -6.2      195.2   56.2   13.3  145.9   -4.5   336.4
 04 JAN 15  15:07:00:00     473    5.7      36   -5.2      195.3   56.4   13.3  145.9   -4.5   335.8
 04 JAN 15  15:08:00:00     493    4.8      38   -5.1      195.3   56.5   13.3  145.9   -4.5   335.3
 04 JAN 15  15:09:00:00     468    5.0      42    0.1      195.3   56.6   13.3  145.9   -4.5   334.7
 04 JAN 15  15:10:00:00     462    4.7      41   -3.8      195.3   56.8   13.3  145.9   -4.5   334.2
 04 JAN 15  15:11:00:00     454    3.3      45   -2.5      195.3   56.9   13.2  145.9   -4.5   333.6
 04 JAN 15  15:12:00:00     458    3.7      49   -4.0      195.4   57.0   13.2  145.9   -4.5   333.1
 04 JAN 15  15:13:00:00     534    4.4      48    6.4      195.4   57.2   13.2  145.9   -4.5   332.5
 04 JAN 15  15:14:00:00     535    3.7      48    4.5      195.4   57.3   13.2  145.9   -4.5   332.0
 04 JAN 15  15:15:00:00     522    3.1      46   -0.2      195.4   57.4   13.2  145.9   -4.5   331.4
 04 JAN 15  15:16:00:00     545    3.2      47    0.1      195.4   57.6   13.2  145.9   -4.5   330.9
 04 JAN 15  15:17:00:00     533    3.2      46   -1.5      195.5   57.7   13.1  145.9   -4.5   330.3
 04 JAN 15  15:18:00:00     519    5.1      44    0.4      195.5   57.8   13.1  145.9   -4.5   329.8
 04 JAN 15  15:19:00:00     535    6.9      46    2.1      195.5   58.0   13.1  145.9   -4.5   329.2
 04 JAN 15  15:20:00:00     523    7.7      46   -0.1      195.5   58.1   13.1  145.9   -4.5   328.7
 04 JAN 15  15:21:00:00     548    6.5      46    0.5      195.6   58.2   13.1  145.9   -4.5   328.1
 04 JAN 15  15:22:00:00     567    6.0      44    0.0      195.6   58.4   13.0  145.9   -4.5   327.6
 04 JAN 15  15:23:00:00     561    6.5      44   -1.3      195.6   58.5   13.0  145.9   -4.5   327.0
 04 JAN 16  16:00:00:00     564    5.6      43   -0.7      195.6   58.6   13.0  145.9   -4.6   326.5
 04 JAN 16  16:01:00:00     562    6.4      44    0.3      195.6   58.8   13.0  145.9   -4.6   325.9
 04 JAN 16  16:02:00:00     562    5.4      44   -1.2      195.7   58.9   13.0  145.9   -4.6   325.4
 04 JAN 16  16:03:00:00     564    4.6      44    1.1      195.7   59.0   12.9  145.9   -4.6   324.8
 04 JAN 16  16:04:00:00     569    4.6      39   -0.8      195.7   59.2   12.9  145.9   -4.6   324.3
 04 JAN 16  16:05:00:00     569    4.9      39   -2.2      195.7   59.3   12.9  145.9   -4.6   323.7
 04 JAN 16  16:06:00:00     571    5.5      39   -1.3      195.7   59.4   12.9  145.9   -4.6   323.2
 04 JAN 16  16:07:00:00     580    5.7      41   -0.9      195.8   59.6   12.9  145.9   -4.6   322.6
 04 JAN 16  16:08:00:00     588    5.4      45    0.7      195.8   59.7   12.8  145.9   -4.6   322.1
 04 JAN 16  16:09:00:00     604    5.3      45    0.7      195.8   59.8   12.8  145.9   -4.6   321.5
 04 JAN 16  16:10:00:00     610    5.0      49   -1.0      195.8   60.0   12.8  145.9   -4.6   321.0
 04 JAN 16  16:11:00:00     627    5.1      50   -0.9      195.9   60.1   12.8  145.9   -4.6   320.4
 04 JAN 16  16:12:00:00     597    4.8      47   -0.3      195.9   60.2   12.8  145.9   -4.6   319.9
 04 JAN 16  16:13:00:00     606    5.4      49   -1.5      195.9   60.4   12.7  145.9   -4.6   319.3
 04 JAN 16  16:14:00:00     611    4.6      47   -1.0      195.9   60.5   12.7  145.9   -4.6   318.8
 04 JAN 16  16:15:00:00     639    3.4      51   -1.0      195.9   60.6   12.7  145.9   -4.6   318.2
 04 JAN 16  16:16:00:00     622    3.6      50    1.6      196.0   60.8   12.7  145.9   -4.6   317.7
 04 JAN 16  16:17:00:00     615    4.0      49   -1.0      196.0   60.9   12.7  145.9   -4.6   317.1
 04 JAN 16  16:18:00:00     650    4.1      52    1.1      196.0   61.0   12.6  145.9   -4.6   316.6
 04 JAN 16  16:19:00:00     613    5.0      48    1.9      196.0   61.2   12.6  145.9   -4.6   316.0
 04 JAN 16  16:20:00:00     640    3.7      52   -2.3      196.0   61.3   12.6  145.9   -4.6   315.5
 04 JAN 16  16:21:00:00     609    5.4      49   -0.1      196.1   61.4   12.6  145.9   -4.6   314.9
 04 JAN 16  16:22:00:00     624    4.9      49   -1.4      196.1   61.6   12.6  145.9   -4.6   314.3
 04 JAN 16  16:23:00:00     635    3.8      51   -2.2      196.1   61.7   12.5  145.9   -4.6   313.8
 04 JAN 17  17:00:00:00     640    4.2      51   -1.8      196.1   61.8   12.5  145.9   -4.7   313.2
 04 JAN 17  17:01:00:00     640    4.1      53   -0.7      196.2   61.9   12.5  145.9   -4.7   312.7
 04 JAN 17  17:02:00:00     633    3.8      52   -0.1      196.2   62.1   12.5  145.9   -4.7   312.1
 04 JAN 17  17:03:00:00     620    3.5      50   -0.8      196.2   62.2   12.5  145.9   -4.7   311.6
 04 JAN 17  17:04:00:00     638    3.8      53   -0.2      196.2   62.3   12.4  145.9   -4.7   311.0
 04 JAN 17  17:05:00:00     605    4.2      48   -1.3      196.2   62.5   12.4  145.9   -4.7   310.5
 04 JAN 17  17:06:00:00     600    4.0      47   -0.8      196.3   62.6   12.4  145.9   -4.7   309.9
 04 JAN 17  17:07:00:00     663    3.4      58   -0.9      196.3   62.7   12.4  145.9   -4.7   309.4
 04 JAN 17  17:08:00:00     625    4.2      51    0.8      196.3   62.9   12.4  145.9   -4.7   308.8
 04 JAN 17  17:09:00:00     602    4.3      48   -1.5      196.3   63.0   12.3  145.9   -4.7   308.3
 04 JAN 17  17:10:00:00     607    3.4      48   -0.6      196.4   63.1   12.3  145.9   -4.7   307.7
 04 JAN 17  17:11:00:00     621    3.6      52   -1.2      196.4   63.2   12.3  145.9   -4.7   307.2
 04 JAN 17  17:12:00:00     609    3.7      48    1.1      196.4   63.4   12.3  145.9   -4.7   306.6
 04 JAN 17  17:13:00:00     586    4.4      44   -0.6      196.4   63.5   12.3  145.9   -4.7   306.1
 04 JAN 17  17:14:00:00     591    4.2      44   -1.6      196.5   63.6   12.2  145.9   -4.7   305.5
 04 JAN 17  17:15:00:00     586    4.0      42   -0.5      196.5   63.8   12.2  145.9   -4.7   305.0
 04 JAN 17  17:16:00:00     578    4.7      41   -0.6      196.5   63.9   12.2  145.9   -4.7   304.4
 04 JAN 17  17:17:00:00     566    3.0      39   -2.0      196.5   64.0   12.2  145.9   -4.7   303.9
 04 JAN 17  17:18:00:00     555    2.8      34   -0.6      196.5   64.2   12.2  145.9   -4.7   303.3
 04 JAN 17  17:19:00:00     560    2.8      34   -2.0      196.6   64.3   12.1  145.9   -4.7   302.8
 04 JAN 17  17:20:00:00     557    3.6      32   -2.7      196.6   64.4   12.1  145.9   -4.7   302.2
 04 JAN 17  17:21:00:00     557    3.4      33   -2.3      196.6   64.5   12.1  145.9   -4.7   301.7
 04 JAN 17  17:22:00:00     556    3.5      34   -3.2      196.6   64.7   12.1  145.9   -4.7   301.1
 04 JAN 17  17:23:00:00     554    3.4      42   -1.6      196.7   64.8   12.0  145.9   -4.7   300.6
 04 JAN 18  18:00:00:00     554    4.3      41   -3.9      196.7   64.9   12.0  145.9   -4.8   300.0
 04 JAN 18  18:01:00:00     551    4.1      42   -3.5      196.7   65.1   12.0  145.9   -4.8   299.5
 04 JAN 18  18:02:00:00     554    3.3      41   -0.2      196.7   65.2   12.0  145.9   -4.8   298.9
 04 JAN 18  18:03:00:00     553    2.9      44   -1.6      196.7   65.3   12.0  145.9   -4.8   298.4
 04 JAN 18  18:04:00:00     558    2.2      45    0.4      196.8   65.4   11.9  145.9   -4.8   297.8
 04 JAN 18  18:05:00:00     556    2.5      45   -0.7      196.8   65.6   11.9  145.9   -4.8   297.3
 04 JAN 18  18:06:00:00     567    3.2      44    0.8      196.8   65.7   11.9  145.9   -4.8   296.7
 04 JAN 18  18:07:00:00     551    2.7      46   -2.6      196.8   65.8   11.9  145.9   -4.8   296.2
 04 JAN 18  18:08:00:00     554    2.3      46   -4.3      196.9   65.9   11.9  145.9   -4.8   295.6
 04 JAN 18  18:09:00:00     547    2.2      46   -3.9      196.9   66.1   11.8  145.9   -4.8   295.1
 04 JAN 18  18:10:00:00     560    2.2      45   -3.0      196.9   66.2   11.8  145.9   -4.8   294.5
 04 JAN 18  18:11:00:00     582    2.2      46   -0.7      196.9   66.3   11.8  145.9   -4.8   294.0
 04 JAN 18  18:12:00:00     578    1.9      47   -1.1      197.0   66.5   11.8  145.9   -4.8   293.4
 04 JAN 18  18:13:00:00     571    1.9      43   -5.3      197.0   66.6   11.8  145.9   -4.8   292.9
 04 JAN 18  18:14:00:00     571    2.0      43   -1.3      197.0   66.7   11.7  145.9   -4.8   292.3
 04 JAN 18  18:15:00:00     580    2.5      43   -0.6      197.0   66.8   11.7  145.9   -4.8   291.8
 04 JAN 18  18:16:00:00     579    2.9      41   -3.3      197.0   67.0   11.7  145.9   -4.8   291.2
 04 JAN 18  18:17:00:00     588    2.7      44    1.1      197.1   67.1   11.7  145.9   -4.8   290.7
 04 JAN 18  18:18:00:00     610    3.3      46    2.6      197.1   67.2   11.6  145.9   -4.8   290.1
 04 JAN 18  18:19:00:00     587    3.8      46    0.2      197.1   67.3   11.6  145.9   -4.8   289.6
 04 JAN 18  18:20:00:00     574    2.8      44   -0.5      197.1   67.5   11.6  145.9   -4.8   289.0
 04 JAN 18  18:21:00:00     583    3.0      45    0.3      197.2   67.6   11.6  145.9   -4.8   288.5
 04 JAN 18  18:22:00:00     594    3.1      46   -0.4      197.2   67.7   11.6  145.9   -4.8   287.9
 04 JAN 18  18:23:00:00     596    3.1      45    1.3      197.2   67.8   11.5  145.9   -4.8   287.4
 04 JAN 19  19:00:00:00     577    3.9      42    1.4      197.2   68.0   11.5  145.9   -4.8   286.8
 04 JAN 19  19:01:00:00     573    3.5      42   -1.2      197.3   68.1   11.5  145.9   -4.9   286.3
 04 JAN 19  19:02:00:00     573    3.8      43   -2.8      197.3   68.2   11.5  145.9   -4.9   285.7
 04 JAN 19  19:03:00:00     582    3.9      44   -1.5      197.3   68.3   11.4  145.9   -4.9   285.2
 04 JAN 19  19:04:00:00     591    3.9      45   -0.3      197.3   68.5   11.4  145.9   -4.9   284.6
 04 JAN 19  19:05:00:00     634    3.0      50   -1.1      197.4   68.6   11.4  145.9   -4.9   284.1
 04 JAN 19  19:06:00:00     622    3.2      47   -2.5      197.4   68.7   11.4  145.9   -4.9   283.5
 04 JAN 19  19:07:00:00     579    4.7      41    1.2      197.4   68.8   11.4  145.9   -4.9   283.0
 04 JAN 19  19:08:00:00     585    4.0      43   -0.9      197.4   69.0   11.3  145.9   -4.9   282.4
 04 JAN 19  19:09:00:00     580    4.8      42    0.6      197.4   69.1   11.3  145.9   -4.9   281.9
 04 JAN 19  19:10:00:00     587    4.6      44    0.9      197.5   69.2   11.3  145.9   -4.9   281.3
 04 JAN 19  19:11:00:00     583    4.9      43    1.0      197.5   69.3   11.3  145.9   -4.9   280.8
 04 JAN 19  19:12:00:00     588    4.1      42    2.0      197.5   69.4   11.3  145.9   -4.9   280.2
 04 JAN 19  19:13:00:00     594    4.2      45    1.3      197.5   69.6   11.2  145.9   -4.9   279.7
 04 JAN 19  19:14:00:00     596    4.7      45    1.9      197.6   69.7   11.2  145.9   -4.9   279.1
 04 JAN 19  19:15:00:00     582    4.6      42    0.0      197.6   69.8   11.2  145.9   -4.9   278.6
 04 JAN 19  19:16:00:00     588    4.8      43    3.2      197.6   69.9   11.2  145.9   -4.9   278.0
 04 JAN 19  19:17:00:00     576    4.2      39    2.7      197.6   70.1   11.1  145.9   -4.9   277.5
 04 JAN 19  19:18:00:00     572    4.4      38    3.4      197.7   70.2   11.1  145.9   -4.9   276.9
 04 JAN 19  19:19:00:00     578    3.7      41    1.1      197.7   70.3   11.1  145.9   -4.9   276.4
 04 JAN 19  19:20:00:00     571    4.2      39    1.2      197.7   70.4   11.1  145.9   -4.9   275.8
 04 JAN 19  19:21:00:00     573    4.6      39    0.9      197.7   70.6   11.1  145.9   -4.9   275.3
 04 JAN 19  19:22:00:00     567    3.7      40    1.1      197.8   70.7   11.0  145.9   -4.9   274.7
 04 JAN 19  19:23:00:00     562    3.5      39   -0.4      197.8   70.8   11.0  145.9   -4.9   274.2
 04 JAN 20  20:00:00:00     561    2.9      43   -0.1      197.8   70.9   11.0  145.9   -4.9   273.6
 04 JAN 20  20:01:00:00     552    2.2      44   -0.5      197.8   71.0   11.0  145.9   -4.9   273.1
 04 JAN 20  20:02:00:00     555    2.5      43   -2.1      197.8   71.2   10.9  145.9   -5.0   272.5
 04 JAN 20  20:03:00:00     563    3.7      38   -0.5      197.9   71.3   10.9  145.9   -5.0   272.0
 04 JAN 20  20:04:00:00     573    3.8      40    0.2      197.9   71.4   10.9  145.9   -5.0   271.4
 04 JAN 20  20:05:00:00     570    4.3      39    0.3      197.9   71.5   10.9  145.9   -5.0   270.9
 04 JAN 20  20:06:00:00     561    4.1      37   -0.2      197.9   71.6   10.8  145.9   -5.0   270.3
 04 JAN 20  20:07:00:00     557    3.9      38   -0.9      198.0   71.8   10.8  145.9   -5.0   269.8
 04 JAN 20  20:08:00:00     558    3.3      40   -1.6      198.0   71.9   10.8  145.9   -5.0   269.2
 04 JAN 20  20:09:00:00     558    3.1      39   -0.7      198.0   72.0   10.8  145.9   -5.0   268.7
 04 JAN 20  20:10:00:00     550    3.9      32    0.4      198.0   72.1   10.8  145.9   -5.0   268.1
 04 JAN 20  20:11:00:00     552    3.9      35    0.5      198.1   72.2   10.7  145.9   -5.0   267.6
 04 JAN 20  20:12:00:00     549    3.9      36    1.9      198.1   72.4   10.7  145.9   -5.0   267.0
 04 JAN 20  20:13:00:00     547    3.9      33    2.3      198.1   72.5   10.7  145.9   -5.0   266.5
 04 JAN 20  20:14:00:00     544    2.6      40    1.1      198.1   72.6   10.7  145.9   -5.0   265.9
 04 JAN 20  20:15:00:00     547    2.2      40   -0.7      198.2   72.7   10.6  145.9   -5.0   265.4
 04 JAN 20  20:16:00:00     544    2.3      42   -1.5      198.2   72.8   10.6  145.9   -5.0   264.8
 04 JAN 20  20:17:00:00     530    2.0      44   -0.2      198.2   73.0   10.6  145.9   -5.0   264.3
 04 JAN 20  20:18:00:00     525    2.1      44   -0.2      198.2   73.1   10.6  145.9   -5.0   263.7
 04 JAN 20  20:19:00:00     504    2.8      40   -0.4      198.2   73.2   10.6  145.9   -5.0   263.2
 04 JAN 20  20:20:00:00     502    3.2      41   -0.1      198.3   73.3   10.5  145.9   -5.0   262.6
 04 JAN 20  20:21:00:00     497    3.6      40    1.0      198.3   73.4   10.5  145.9   -5.0   262.1
 04 JAN 20  20:22:00:00     511    3.8      41    2.0      198.3   73.5   10.5  145.9   -5.0   261.5
 04 JAN 20  20:23:00:00     489    4.0      38   -0.2      198.3   73.7   10.5  145.9   -5.0   261.0
 04 JAN 21  21:00:00:00     494    3.7      39   -2.2      198.4   73.8   10.4  145.9   -5.0   260.4
 04 JAN 21  21:01:00:00     485    4.2      37   -0.9      198.4   73.9   10.4  145.9   -5.0   259.9
 04 JAN 21  21:02:00:00     505    4.2      41    0.5      198.4   74.0   10.4  145.9   -5.0   259.3
 04 JAN 21  21:03:00:00     501    3.9      41   -1.0      198.4   74.1   10.4  145.9   -5.0   258.8
 04 JAN 21  21:04:00:00     492    4.2      38    0.0      198.5   74.2   10.3  145.9   -5.1   258.2
 04 JAN 21  21:05:00:00     513    3.8      40   -0.2      198.5   74.4   10.3  145.9   -5.1   257.7
 04 JAN 21  21:06:00:00     519    3.1      43   -0.9      198.5   74.5   10.3  145.9   -5.1   257.1
 04 JAN 21  21:07:00:00     491    4.4      39   -0.8      198.5   74.6   10.3  145.9   -5.1   256.6
 04 JAN 21  21:08:00:00     524    2.9      44   -0.5      198.6   74.7   10.3  145.9   -5.1   256.0
 04 JAN 21  21:09:00:00     531    2.3      45   -2.2      198.6   74.8   10.2  146.0   -5.1   255.5
 04 JAN 21  21:10:00:00     501    3.4      41   -1.2      198.6   74.9   10.2  146.0   -5.1   254.9
 04 JAN 21  21:11:00:00     478    4.5      37   -0.7      198.6   75.1   10.2  146.0   -5.1   254.4
 04 JAN 21  21:12:00:00     503    2.5      44   -0.4      198.7   75.2   10.2  146.0   -5.1   253.8
 04 JAN 21  21:13:00:00     494    3.6      41    1.3      198.7   75.3   10.1  146.0   -5.1   253.3
 04 JAN 21  21:14:00:00     486    4.2      38    1.6      198.7   75.4   10.1  146.0   -5.1   252.7
 04 JAN 21  21:15:00:00     494    4.4      39    1.4      198.7   75.5   10.1  146.0   -5.1   252.2
 04 JAN 21  21:16:00:00     478    4.6      37   -0.4      198.7   75.6   10.1  146.0   -5.1   251.6
 04 JAN 21  21:17:00:00     494    3.6      40   -1.4      198.8   75.7   10.0  146.0   -5.1   251.1
 04 JAN 21  21:18:00:00     477    4.4      37    0.2      198.8   75.9   10.0  146.0   -5.1   250.5
 04 JAN 21  21:19:00:00     479    4.4      36   -1.0      198.8   76.0   10.0  146.0   -5.1   250.0
 04 JAN 21  21:20:00:00     475    4.7      36   -0.6      198.8   76.1   10.0  146.0   -5.1   249.4
 04 JAN 21  21:21:00:00     477    5.0      35    0.1      198.9   76.2   10.0  146.0   -5.1   248.9
 04 JAN 21  21:22:00:00     469    4.3      34   -1.5      198.9   76.3    9.9  146.0   -5.1   248.3
 04 JAN 21  21:23:00:00     464    4.8      32   -1.8      198.9   76.4    9.9  146.0   -5.1   247.8
 04 JAN 22  22:00:00:00     466    5.2      32    0.7      198.9   76.5    9.9  146.0   -5.1   247.2
 04 JAN 22  22:01:00:00     663   21.8      60   -3.3      199.0   76.7    9.9  146.0   -5.1   246.7
 04 JAN 22  22:02:00:00     706   24.1      62   -2.8      199.0   76.8    9.8  146.0   -5.1   246.1
 04 JAN 22  22:03:00:00     688   23.7      61   -1.8      199.0   76.9    9.8  146.0   -5.1   245.6
 04 JAN 22  22:04:00:00     660   22.6      62   -1.2      199.0   77.0    9.8  146.0   -5.1   245.0
 04 JAN 22  22:05:00:00     649   24.4      66    0.0      199.1   77.1    9.8  146.0   -5.1   244.5
 04 JAN 22  22:06:00:00     660   23.4      59    0.0      199.1   77.2    9.7  146.0   -5.2   243.9
 04 JAN 22  22:07:00:00     645   21.7      58   -0.3      199.1   77.3    9.7  146.0   -5.2   243.4
 04 JAN 22  22:08:00:00     647   11.6      53    1.4      199.1   77.4    9.7  146.0   -5.2   242.8
 04 JAN 22  22:09:00:00     686   14.0      52    5.1      199.2   77.6    9.7  146.0   -5.2   242.3
 04 JAN 22  22:10:00:00     691   10.2      49    3.1      199.2   77.7    9.6  146.0   -5.2   241.7
 04 JAN 22  22:11:00:00     686   13.5      50   -0.7      199.2   77.8    9.6  146.0   -5.2   241.2
 04 JAN 22  22:12:00:00     643    7.3      53   -2.0      199.2   77.9    9.6  146.0   -5.2   240.6
 04 JAN 22  22:13:00:00     652    3.0      55   -2.8      199.2   78.0    9.6  146.0   -5.2   240.1
 04 JAN 22  22:14:00:00     680    2.0      52   -4.5      199.3   78.1    9.5  146.0   -5.2   239.5
 04 JAN 22  22:15:00:00     580    4.2      39   -2.9      199.3   78.2    9.5  146.0   -5.2   239.0
 04 JAN 22  22:16:00:00     600    1.8      48   -3.5      199.3   78.3    9.5  146.0   -5.2   238.4
 04 JAN 22  22:17:00:00     589    1.5      50   -1.2      199.3   78.4    9.5  146.0   -5.2   237.9
 04 JAN 22  22:18:00:00     562    4.2      34   -3.4      199.4   78.5    9.5  146.0   -5.2   237.3
 04 JAN 22  22:19:00:00     553    7.4      30   -3.4      199.4   78.7    9.4  146.0   -5.2   236.8
 04 JAN 22  22:20:00:00     554    7.1      30   -3.7      199.4   78.8    9.4  146.0   -5.2   236.2
 04 JAN 22  22:21:00:00     556    4.9      37   -5.8      199.4   78.9    9.4  146.0   -5.2   235.7
 04 JAN 22  22:22:00:00     551    3.6      38   -6.1      199.5   79.0    9.4  146.0   -5.2   235.1
 04 JAN 22  22:23:00:00     547    3.4      37   -5.6      199.5   79.1    9.3  146.0   -5.2   234.6
 04 JAN 23  23:00:00:00     555    2.9      37   -5.4      199.5   79.2    9.3  146.0   -5.2   234.0
 04 JAN 23  23:01:00:00     554    4.6      33   -8.1      199.5   79.3    9.3  146.0   -5.2   233.5
 04 JAN 23  23:02:00:00     565    3.8      35   -8.2      199.6   79.4    9.3  146.0   -5.2   232.9
 04 JAN 23  23:03:00:00     570    2.9      36   -8.1      199.6   79.5    9.2  146.0   -5.2   232.4
 04 JAN 23  23:04:00:00     580    3.6      38   -8.0      199.6   79.6    9.2  146.0   -5.2   231.8
 04 JAN 23  23:05:00:00     572    1.4      42   -6.9      199.6   79.7    9.2  146.0   -5.2   231.3
 04 JAN 23  23:06:00:00     545    1.9      46   -5.5      199.7   79.8    9.2  146.0   -5.2   230.7
 04 JAN 23  23:07:00:00     546    3.5      48   -4.2      199.7   79.9    9.1  146.0   -5.2   230.2
 04 JAN 23  23:08:00:00     551    1.7      48   -6.9      199.7   80.0    9.1  146.0   -5.2   229.6
 04 JAN 23  23:09:00:00     564    1.3      50   -5.8      199.7   80.2    9.1  146.0   -5.3   229.1
 04 JAN 23  23:10:00:00     552    1.1      48   -4.2      199.7   80.3    9.1  146.0   -5.3   228.5
 04 JAN 23  23:11:00:00     547    1.6      48   -2.5      199.8   80.4    9.0  146.0   -5.3   228.0
 04 JAN 23  23:12:00:00     522    1.1      47   -2.0      199.8   80.5    9.0  146.0   -5.3   227.4
 04 JAN 23  23:13:00:00     516    1.1      50   -2.0      199.8   80.6    9.0  146.0   -5.3   226.9
 04 JAN 23  23:14:00:00     542    3.6      49    0.9      199.8   80.7    9.0  146.0   -5.3   226.3
 04 JAN 23  23:15:00:00     518    6.0      47    2.0      199.9   80.8    8.9  146.0   -5.3   225.8
 04 JAN 23  23:16:00:00     523    6.1      49    1.8      199.9   80.9    8.9  146.0   -5.3   225.2
 04 JAN 23  23:17:00:00     526    5.9      50    1.3      199.9   81.0    8.9  146.0   -5.3   224.7
 04 JAN 23  23:18:00:00     524    5.6      48    1.7      199.9   81.1    8.9  146.0   -5.3   224.1
 04 JAN 23  23:19:00:00     527    4.7      50    0.7      200.0   81.2    8.9  146.0   -5.3   223.6
 04 JAN 23  23:20:00:00     554    5.6      47   -2.0      200.0   81.3    8.8  146.0   -5.3   223.0
 04 JAN 23  23:21:00:00     554    6.9      41    1.4      200.0   81.4    8.8  146.0   -5.3   222.5
 04 JAN 23  23:22:00:00     552    8.6      37    0.1      200.0   81.5    8.8  146.0   -5.3   221.9
 04 JAN 23  23:23:00:00     545    7.9      39   -0.5      200.1   81.6    8.8  146.0   -5.3   221.4
 04 JAN 24  24:00:00:00     540    7.5      41   -1.3      200.1   81.7    8.7  146.0   -5.3   220.8
 04 JAN 24  24:01:00:00     532    7.0      41   -1.0      200.1   81.8    8.7  146.0   -5.3   220.3
 04 JAN 24  24:02:00:00     516    6.0      42   -2.3      200.1   81.9    8.7  146.0   -5.3   219.7
 04 JAN 24  24:03:00:00     504    7.0      40   -2.2      200.2   82.0    8.7  146.0   -5.3   219.2
 04 JAN 24  24:04:00:00     481   11.9      35   -2.0      200.2   82.1    8.6  146.0   -5.3   218.6
 04 JAN 24  24:05:00:00     506    8.5      42   -3.7      200.2   82.2    8.6  146.0   -5.3   218.1
 04 JAN 24  24:06:00:00     521    5.2      44   -4.1      200.2   82.3    8.6  146.0   -5.3   217.5
 04 JAN 24  24:07:00:00     523    2.9      44   -1.8      200.3   82.4    8.6  146.0   -5.3   217.0
 04 JAN 24  24:08:00:00     496    3.4      40   -0.4      200.3   82.5    8.5  146.0   -5.3   216.4
 04 JAN 24  24:09:00:00     474    5.1      36   -0.8      200.3   82.6    8.5  146.0   -5.3   215.9
 04 JAN 24  24:10:00:00     472    4.2      33   -3.0      200.3   82.7    8.5  146.0   -5.3   215.3
 04 JAN 24  24:11:00:00     478    5.6      34   -3.9      200.4   82.8    8.5  146.0   -5.3   214.8
 04 JAN 24  24:12:00:00     474    5.8      33   -4.2      200.4   82.9    8.4  146.0   -5.4   214.2
 04 JAN 24  24:13:00:00     465    7.0      31   -3.6      200.4   83.0    8.4  146.0   -5.4   213.7
 04 JAN 24  24:14:00:00     470   10.3      31   -4.8      200.4   83.1    8.4  146.0   -5.4   213.1
 04 JAN 24  24:15:00:00     466    9.7      30   -4.7      200.4   83.2    8.4  146.0   -5.4   212.6
 04 JAN 24  24:16:00:00     466    6.6      31   -3.8      200.5   83.3    8.3  146.0   -5.4   212.0
 04 JAN 24  24:17:00:00     466   12.2      29   -6.6      200.5   83.4    8.3  146.0   -5.4   211.5
 04 JAN 24  24:18:00:00     460   12.0      27   -6.2      200.5   83.5    8.3  146.0   -5.4   210.9
 04 JAN 24  24:19:00:00     457   10.6      26   -5.7      200.5   83.6    8.3  146.0   -5.4   210.4
 04 JAN 24  24:20:00:00     450    8.1      22   -4.8      200.6   83.7    8.2  146.0   -5.4   209.8
 04 JAN 24  24:21:00:00     446    6.6      20   -3.3      200.6   83.8    8.2  146.0   -5.4   209.3
 04 JAN 24  24:22:00:00     449    4.4      23   -1.4      200.6   83.9    8.2  146.0   -5.4   208.7
 04 JAN 24  24:23:00:00     465    3.5      31   -0.7      200.6   84.0    8.2  146.0   -5.4   208.2
 04 JAN 25  25:00:00:00     479    2.8      34   -0.1      200.7   84.1    8.1  146.0   -5.4   207.6
 04 JAN 25  25:01:00:00     472    3.3      35    0.1      200.7   84.2    8.1  146.0   -5.4   207.1
 04 JAN 25  25:02:00:00     465    4.7      32    0.4      200.7   84.3    8.1  146.0   -5.4   206.5
 04 JAN 25  25:03:00:00     489    2.9      42    0.9      200.7   84.4    8.1  146.0   -5.4   205.9
 04 JAN 25  25:04:00:00     482    3.3      40    1.6      200.8   84.5    8.0  146.0   -5.4   205.4
 04 JAN 25  25:05:00:00     478    3.6      39    3.0      200.8   84.6    8.0  146.0   -5.4   204.8
 04 JAN 25  25:06:00:00     511    4.0      45   -0.5      200.8   84.7    8.0  146.0   -5.4   204.3
 04 JAN 25  25:07:00:00     494    5.0      40   -1.2      200.8   84.8    8.0  146.0   -5.4   203.7
 04 JAN 25  25:08:00:00     491    4.7      40   -3.7      200.9   84.9    7.9  146.0   -5.4   203.2
 04 JAN 25  25:09:00:00     490    4.4      41   -1.1      200.9   85.0    7.9  146.0   -5.4   202.6
 04 JAN 25  25:10:00:00     506    3.4      43   -2.2      200.9   85.1    7.9  146.0   -5.4   202.1
 04 JAN 25  25:11:00:00     468    6.4      33   -3.9      200.9   85.2    7.9  146.0   -5.4   201.5
 04 JAN 25  25:12:00:00     470    4.9      34   -0.1      201.0   85.3    7.8  146.0   -5.4   201.0
 04 JAN 25  25:13:00:00     468    4.9      34   -0.6      201.0   85.3    7.8  146.0   -5.4   200.4
 04 JAN 25  25:14:00:00     481    4.7      38   -4.9      201.0   85.4    7.8  146.0   -5.4   199.9
 04 JAN 25  25:15:00:00     478    4.4      38   -5.4      201.0   85.5    7.8  146.0   -5.4   199.3
 04 JAN 25  25:16:00:00     484    5.3      37    1.1      201.1   85.6    7.7  146.0   -5.5   198.8
 04 JAN 25  25:17:00:00     470    5.2      36   -1.4      201.1   85.7    7.7  146.0   -5.5   198.2
 04 JAN 25  25:18:00:00     469    4.9      36   -1.9      201.1   85.8    7.7  146.0   -5.5   197.7
 04 JAN 25  25:19:00:00     475    5.4      37   -0.4      201.1   85.9    7.7  146.0   -5.5   197.1
 04 JAN 25  25:20:00:00     476    5.6      37   -0.1      201.2   86.0    7.6  146.0   -5.5   196.6
 04 JAN 25  25:21:00:00     471    5.4      38   -0.6      201.2   86.1    7.6  146.0   -5.5   196.0
 04 JAN 25  25:22:00:00     465    5.2      37   -1.8      201.2   86.2    7.6  146.0   -5.5   195.5
 04 JAN 25  25:23:00:00     469    4.4      38   -0.4      201.2   86.3    7.6  146.0   -5.5   194.9
 04 JAN 26  26:00:00:00     465    4.0      37   -2.6      201.3   86.4    7.5  146.0   -5.5   194.4
 04 JAN 26  26:01:00:00     465    5.1      36   -4.8      201.3   86.5    7.5  146.0   -5.5   193.8
 04 JAN 26  26:02:00:00     462    4.4      36   -3.8      201.3   86.5    7.5  146.0   -5.5   193.3
 04 JAN 26  26:03:00:00     463    3.4      36   -3.6      201.3   86.6    7.5  146.0   -5.5   192.7
 04 JAN 26  26:04:00:00     450    6.6      33   -4.5      201.4   86.7    7.4  146.0   -5.5   192.2
 04 JAN 26  26:05:00:00     464    5.2      37   -2.8      201.4   86.8    7.4  146.0   -5.5   191.6
 04 JAN 26  26:06:00:00     446    3.5      36   -3.0      201.4   86.9    7.4  146.0   -5.5   191.1
 04 JAN 26  26:07:00:00     429    4.1      36   -4.4      201.4   87.0    7.4  146.0   -5.5   190.5
 04 JAN 26  26:08:00:00     443    3.4      34   -2.3      201.5   87.1    7.3  146.0   -5.5   190.0
 04 JAN 26  26:09:00:00     432    5.0      33   -5.7      201.5   87.2    7.3  146.0   -5.5   189.4
 04 JAN 26  26:10:00:00     439    9.6      32   -7.4      201.5   87.3    7.3  146.0   -5.5   188.9
 04 JAN 26  26:11:00:00     419    4.3      35   -3.8      201.5   87.3    7.3  146.0   -5.5   188.3
 04 JAN 26  26:12:00:00     411    4.2      34   -2.0      201.6   87.4    7.2  146.0   -5.5   187.8
 04 JAN 26  26:13:00:00     433    6.0      34   -2.6      201.6   87.5    7.2  146.0   -5.5   187.2
 04 JAN 26  26:14:00:00     421    5.3      36   -5.0      201.6   87.6    7.2  146.0   -5.5   186.7
 04 JAN 26  26:15:00:00     423    3.4      37   -1.8      201.6   87.7    7.2  146.0   -5.5   186.1
 04 JAN 26  26:16:00:00     432    5.5      34   -2.5      201.7   87.8    7.1  146.0   -5.5   185.6
 04 JAN 26  26:17:00:00     407    4.9      32   -2.3      201.7   87.9    7.1  146.0   -5.5   185.0
 04 JAN 26  26:18:00:00     417    7.7      33   -1.9      201.7   88.0    7.1  146.0   -5.5   184.5
 04 JAN 26  26:19:00:00     440    8.9      39   -0.5      201.8   88.0    7.1  146.0   -5.5   183.9
 04 JAN 26  26:20:00:00     443   12.2      37   -1.7      201.8   88.1    7.0  146.0   -5.6   183.4
 04 JAN 26  26:21:00:00     442    9.9      36   -4.5      201.8   88.2    7.0  146.0   -5.6   182.8
 04 JAN 26  26:22:00:00     432    8.8      37    2.1      201.8   88.3    7.0  146.0   -5.6   182.3
 04 JAN 26  26:23:00:00     421    6.9      37    2.2      201.9   88.4    7.0  146.0   -5.6   181.7
 04 JAN 27  27:00:00:00     409    5.7      34    1.4      201.9   88.5    6.9  146.0   -5.6   181.2
 04 JAN 27  27:01:00:00     408    6.6      33    3.4      201.9   88.5    6.9  146.0   -5.6   180.6
 04 JAN 27  27:02:00:00     406    6.9      32    4.0      201.9   88.6    6.9  146.0   -5.6   180.1
 04 JAN 27  27:03:00:00     398    4.1      30   -0.3      202.0   88.7    6.9  146.0   -5.6   179.5
 04 JAN 27  27:04:00:00     402    4.9      32    0.4      202.0   88.8    6.8  146.0   -5.6   179.0
 04 JAN 27  27:05:00:00     425    4.6      36   -2.2      202.0   88.9    6.8  146.0   -5.6   178.4
 04 JAN 27  27:06:00:00     474    7.7      40    1.9      202.0   89.0    6.8  146.0   -5.6   177.9
 04 JAN 27  27:07:00:00     486    6.3      37   -0.3      202.1   89.1    6.8  146.0   -5.6   177.3
 04 JAN 27  27:08:00:00     467    4.9      35   -0.6      202.1   89.1    6.7  146.0   -5.6   176.8
 04 JAN 27  27:09:00:00     485    5.4      40    0.9      202.1   89.2    6.7  146.0   -5.6   176.2
 04 JAN 27  27:10:00:00     488    7.0      38    1.2      202.1   89.3    6.7  146.0   -5.6   175.7
 04 JAN 27  27:11:00:00     511    7.7      40    1.4      202.2   89.4    6.7  146.0   -5.6   175.1
 04 JAN 27  27:12:00:00     514    6.6      45    0.9      202.2   89.5    6.6  146.0   -5.6   174.6
 04 JAN 27  27:13:00:00     512    6.0      44    0.7      202.2   89.5    6.6  146.0   -5.6   174.0
 04 JAN 27  27:14:00:00     521    5.3      45    0.0      202.3   89.6    6.6  146.0   -5.6   173.5
 04 JAN 27  27:15:00:00     509    5.8      43    1.0      202.3   89.7    6.5  146.0   -5.6   172.9
 04 JAN 27  27:16:00:00     502    5.5      40    1.6      202.3   89.8    6.5  146.0   -5.6   172.4
 04 JAN 27  27:17:00:00     489    5.0      38    1.9      202.3   89.9    6.5  146.0   -5.6   171.8
 04 JAN 27  27:18:00:00     497    8.5      38    1.6      202.4   89.9    6.5  146.0   -5.6   171.3
 04 JAN 27  27:19:00:00     510    9.9      40    3.5      202.4   90.0    6.4  146.0   -5.6   170.7
 04 JAN 27  27:20:00:00     492    9.3      36    2.7      202.4   90.1    6.4  146.0   -5.6   170.2
 04 JAN 27  27:21:00:00     502    8.6      38    3.1      202.4   90.2    6.4  146.0   -5.6   169.6
 04 JAN 27  27:22:00:00     518    6.5      39    2.1      202.5   90.3    6.4  146.0   -5.6   169.1
 04 JAN 27  27:23:00:00     482    7.4      37    2.0      202.5   90.3    6.3  146.0   -5.6   168.5
 04 JAN 28  28:00:00:00     486    9.1      36    1.8      202.5   90.4    6.3  146.0   -5.6   168.0
 04 JAN 28  28:01:00:00     492    7.3      40    1.9      202.5   90.5    6.3  146.0   -5.7   167.4
 04 JAN 28  28:02:00:00     499    7.3      39   -1.0      202.6   90.6    6.3  146.0   -5.7   166.9
 04 JAN 28  28:03:00:00     525    5.0      41   -0.8      202.6   90.7    6.2  146.0   -5.7   166.3
 04 JAN 28  28:04:00:00     540    4.4      44   -1.0      202.6   90.7    6.2  146.0   -5.7   165.8
 04 JAN 28  28:05:00:00     524    4.9      45    2.5      202.7   90.8    6.2  146.0   -5.7   165.2
 04 JAN 28  28:06:00:00     563    4.4      45    0.9      202.7   90.9    6.2  146.0   -5.7   164.7
 04 JAN 28  28:07:00:00     570    4.9      43   -0.4      202.7   91.0    6.1  146.0   -5.7   164.1
 04 JAN 28  28:08:00:00     563    4.8      41   -0.5      202.7   91.0    6.1  146.0   -5.7   163.6
 04 JAN 28  28:09:00:00     553    3.5      42   -0.1      202.8   91.1    6.1  146.0   -5.7   163.0
 04 JAN 28  28:10:00:00     563    4.7      41   -3.0      202.8   91.2    6.1  146.0   -5.7   162.5
 04 JAN 28  28:11:00:00     567    4.6      39    0.0      202.8   91.3    6.0  146.0   -5.7   161.9
 04 JAN 28  28:12:00:00     576    4.8      41   -0.3      202.9   91.3    6.0  146.0   -5.7   161.4
 04 JAN 28  28:13:00:00     570    3.9      38    0.2      202.9   91.4    6.0  146.0   -5.7   160.8
 04 JAN 28  28:14:00:00     575    4.6      40    0.3      202.9   91.5    6.0  146.0   -5.7   160.3
 04 JAN 28  28:15:00:00     566    4.5      36   -0.2      202.9   91.6    5.9  146.0   -5.7   159.7
 04 JAN 28  28:16:00:00     559    4.5      33    1.5      203.0   91.6    5.9  146.0   -5.7   159.2
 04 JAN 28  28:17:00:00     563    3.4      36   -0.4      203.0   91.7    5.9  146.0   -5.7   158.6
 04 JAN 28  28:18:00:00     570    2.5      41   -1.0      203.0   91.8    5.9  146.0   -5.7   158.1
 04 JAN 28  28:19:00:00     563    3.1      36   -0.7      203.1   91.9    5.8  146.0   -5.7   157.5
 04 JAN 28  28:20:00:00     555    3.4      32   -0.4      203.1   91.9    5.8  146.0   -5.7   157.0
 04 JAN 28  28:21:00:00     561    2.7      36    0.5      203.1   92.0    5.8  146.0   -5.7   156.4
 04 JAN 28  28:22:00:00     571    2.7      39    1.0      203.1   92.1    5.7  146.0   -5.7   155.9
 04 JAN 28  28:23:00:00     566    2.6      40    0.6      203.2   92.1    5.7  146.0   -5.7   155.3
 04 JAN 29  29:00:00:00     563    1.9      41    0.7      203.2   92.2    5.7  146.0   -5.7   154.8
 04 JAN 29  29:01:00:00     560    2.1      40   -0.2      203.2   92.3    5.7  146.0   -5.7   154.2
 04 JAN 29  29:02:00:00     556    1.6      40   -2.0      203.3   92.4    5.6  146.0   -5.7   153.7
 04 JAN 29  29:03:00:00     552    1.6      43   -1.6      203.3   92.4    5.6  146.0   -5.7   153.1
 04 JAN 29  29:04:00:00     540    1.8      43    1.1      203.3   92.5    5.6  146.0   -5.7   152.6
 04 JAN 29  29:05:00:00     514    2.2      43    1.5      203.3   92.6    5.6  146.0   -5.7   152.0
 04 JAN 29  29:06:00:00     501    3.3      41    1.0      203.4   92.6    5.5  146.0   -5.7   151.5
 04 JAN 29  29:07:00:00     481    3.8      38    1.2      203.4   92.7    5.5  146.0   -5.8   150.9
 04 JAN 29  29:08:00:00     474    4.7      35    1.5      203.4   92.8    5.5  146.0   -5.8   150.4
 04 JAN 29  29:09:00:00     475    3.9      35   -0.2      203.5   92.9    5.5  146.0   -5.8   149.8
 04 JAN 29  29:10:00:00     470    4.7      33    0.0      203.5   92.9    5.4  146.0   -5.8   149.3
 04 JAN 29  29:11:00:00     467    6.0      32    2.1      203.5   93.0    5.4  146.0   -5.8   148.7
 04 JAN 29  29:12:00:00     463    5.9      32    3.2      203.5   93.1    5.4  146.0   -5.8   148.2
 04 JAN 29  29:13:00:00     460    6.2      33    3.0      203.6   93.1    5.4  146.0   -5.8   147.6
 04 JAN 29  29:14:00:00     463    7.9      31    3.8      203.6   93.2    5.3  146.0   -5.8   147.1
 04 JAN 29  29:15:00:00     463    6.4      33    1.9      203.6   93.3    5.3  146.0   -5.8   146.5
 04 JAN 29  29:16:00:00     455    6.0      35    1.8      203.7   93.3    5.3  146.0   -5.8   146.0
 04 JAN 29  29:17:00:00     451    5.2      36    0.9      203.7   93.4    5.2  146.0   -5.8   145.4
 04 JAN 29  29:18:00:00     451    5.7      35    0.7      203.7   93.5    5.2  146.0   -5.8   144.9
 04 JAN 29  29:19:00:00     431    7.8      35    2.3      203.8   93.5    5.2  146.0   -5.8   144.3
 04 JAN 29  29:20:00:00     416    9.0      34    2.7      203.8   93.6    5.2  146.0   -5.8   143.8
 04 JAN 29  29:21:00:00     420    9.6      36    3.0      203.8   93.7    5.1  146.0   -5.8   143.2
 04 JAN 29  29:22:00:00     412    7.4      35   -0.3      203.8   93.7    5.1  146.0   -5.8   142.7
 04 JAN 29  29:23:00:00     416    9.1      35    1.1      203.9   93.8    5.1  146.0   -5.8   142.1
 04 JAN 30  30:00:00:00     423   11.1      37    0.8      203.9   93.9    5.1  146.1   -5.8   141.6
 04 JAN 30  30:01:00:00     407    7.8      33    1.6      203.9   93.9    5.0  146.1   -5.8   141.0
 04 JAN 30  30:02:00:00     418    6.6      35    0.4      204.0   94.0    5.0  146.1   -5.8   140.5
 04 JAN 30  30:03:00:00     458   11.0      39    0.1      204.0   94.1    5.0  146.1   -5.8   139.9
 04 JAN 30  30:04:00:00     455   13.7      37    1.5      204.0   94.1    5.0  146.1   -5.8   139.4
 04 JAN 30  30:05:00:00     473   12.0      36    0.3      204.1   94.2    4.9  146.1   -5.8   138.8
 04 JAN 30  30:06:00:00     557    8.7      45    1.5      204.1   94.3    4.9  146.1   -5.8   138.3
 04 JAN 30  30:07:00:00     578    9.8      47    1.0      204.1   94.3    4.9  146.1   -5.8   137.7
 04 JAN 30  30:08:00:00     584    8.2      47    3.0      204.2   94.4    4.9  146.1   -5.8   137.2
 04 JAN 30  30:09:00:00     662    4.4      53    2.2      204.2   94.4    4.8  146.1   -5.8   136.6
 04 JAN 30  30:10:00:00     730    4.0      51    3.9      204.2   94.5    4.8  146.1   -5.8   136.1
 04 JAN 30  30:11:00:00     758    3.4      52    2.2      204.2   94.6    4.8  146.1   -5.8   135.5
 04 JAN 30  30:12:00:00     709    3.2      53    1.8      204.3   94.6    4.7  146.1   -5.8   135.0
 04 JAN 30  30:13:00:00     627    4.0      50    1.6      204.3   94.7    4.7  146.1   -5.8   134.4
 04 JAN 30  30:14:00:00     592    4.5      47    0.3      204.3   94.8    4.7  146.1   -5.9   133.9
 04 JAN 30  30:15:00:00     576    3.8      47    0.2      204.4   94.8    4.7  146.1   -5.9   133.3
 04 JAN 30  30:16:00:00     575    4.1      47   -1.7      204.4   94.9    4.6  146.1   -5.9   132.8
 04 JAN 30  30:17:00:00     590    3.8      50    0.0      204.4   94.9    4.6  146.1   -5.9   132.2
 04 JAN 30  30:18:00:00     599    3.8      51   -0.9      204.5   95.0    4.6  146.1   -5.9   131.7
 04 JAN 30  30:19:00:00     581    3.7      45   -0.4      204.5   95.1    4.6  146.1   -5.9   131.1
 04 JAN 30  30:20:00:00     561    3.6      37    0.3      204.5   95.1    4.5  146.1   -5.9   130.6
 04 JAN 30  30:21:00:00     560    3.4      40    1.0      204.6   95.2    4.5  146.1   -5.9   130.0
 04 JAN 30  30:22:00:00     481    3.5      38   -2.5      204.6   95.2    4.5  146.1   -5.9   129.5
 04 JAN 30  30:23:00:00     448    4.5      35   -4.4      204.6   95.3    4.5  146.1   -5.9   128.9
 04 JAN 31  31:00:00:00     441    4.7      36   -5.5      204.7   95.4    4.4  146.1   -5.9   128.4
 04 JAN 31  31:01:00:00     436    4.4      35   -6.4      204.7   95.4    4.4  146.1   -5.9   127.8
 04 JAN 31  31:02:00:00     445    6.7      34   -7.6      204.7   95.5    4.4  146.1   -5.9   127.3
 04 JAN 31  31:03:00:00     458    6.9      33   -6.9      204.8   95.5    4.3  146.1   -5.9   126.7
 04 JAN 31  31:04:00:00     460    6.6      34   -5.9      204.8   95.6    4.3  146.1   -5.9   126.2
 04 JAN 31  31:05:00:00     460    6.7      34   -5.6      204.8   95.6    4.3  146.1   -5.9   125.6
 04 JAN 31  31:06:00:00     482    7.6      36   -4.9      204.9   95.7    4.3  146.1   -5.9   125.1
 04 JAN 31  31:07:00:00     530    5.9      45   -4.0      204.9   95.8    4.2  146.1   -5.9   124.5
 04 JAN 31  31:08:00:00     623    3.4      52   -2.7      204.9   95.8    4.2  146.1   -5.9   124.0
 04 JAN 31  31:09:00:00     601    3.8      49   -2.1      205.0   95.9    4.2  146.1   -5.9   123.4
 04 JAN 31  31:10:00:00     638    3.0      52   -1.0      205.0   95.9    4.2  146.1   -5.9   122.9
 04 JAN 31  31:11:00:00     600    4.2      48   -1.7      205.0   96.0    4.1  146.1   -5.9   122.3
 04 JAN 31  31:12:00:00     585    4.1      44    0.5      205.1   96.0    4.1  146.1   -5.9   121.8
 04 JAN 31  31:13:00:00     602    4.3      48    0.9      205.1   96.1    4.1  146.1   -5.9   121.2
 04 JAN 31  31:14:00:00     601    3.7      47   -0.1      205.1   96.2    4.1  146.1   -5.9   120.7
 04 JAN 31  31:15:00:00     593    3.6      45   -0.2      205.2   96.2    4.0  146.1   -5.9   120.1
 04 JAN 31  31:16:00:00     601    4.0      46    0.3      205.2   96.3    4.0  146.1   -5.9   119.6
 04 JAN 31  31:17:00:00     581    4.4      41   -1.4      205.2   96.3    4.0  146.1   -5.9   119.0
 04 JAN 31  31:18:00:00     589    3.8      44   -2.0      205.3   96.4    3.9  146.1   -5.9   118.5
 04 JAN 31  31:19:00:00     590    4.8      44   -0.1      205.3   96.4    3.9  146.1   -5.9   117.9
 04 JAN 31  31:20:00:00     594    3.7      44    1.3      205.3   96.5    3.9  146.1   -5.9   117.4
 04 JAN 31  31:21:00:00     573    4.8      39   -2.2      205.4   96.5    3.9  146.1   -6.0   116.8
 04 JAN 31  31:22:00:00     578    4.1      41    1.0      205.4   96.6    3.8  146.1   -6.0   116.3
 04 JAN 31  31:23:00:00     575    3.1      41   -0.4      205.4   96.6    3.8  146.1   -6.0   115.7
 04 FEB  1  32:00:00:00     574    3.5      40   -3.0      205.5   96.7    3.8  146.1   -6.0   115.2
 04 FEB  1  32:01:00:00     567    3.6      39   -2.6      205.5   96.7    3.8  146.1   -6.0   114.6
 04 FEB  1  32:02:00:00     576    2.7      42   -1.5      205.5   96.8    3.7  146.1   -6.0   114.1
 04 FEB  1  32:03:00:00     597    3.1      46   -3.4      205.6   96.8    3.7  146.1   -6.0   113.5
 04 FEB  1  32:04:00:00     574    4.0      41   -4.9      205.6   96.9    3.7  146.1   -6.0   113.0
 04 FEB  1  32:05:00:00     569    2.7      41   -1.0      205.6   96.9    3.6  146.1   -6.0   112.4
 04 FEB  1  32:06:00:00     560    2.7      43   -1.7      205.7   97.0    3.6  146.1   -6.0   111.9
 04 FEB  1  32:07:00:00     548    2.4      43    0.2      205.7   97.1    3.6  146.1   -6.0   111.3
 04 FEB  1  32:08:00:00     548    2.5      45    0.5      205.7   97.1    3.6  146.1   -6.0   110.8
 04 FEB  1  32:09:00:00     536    2.4      46   -0.7      205.8   97.2    3.5  146.1   -6.0   110.2
 04 FEB  1  32:10:00:00     543    2.4      46    1.1      205.8   97.2    3.5  146.1   -6.0   109.7
 04 FEB  1  32:11:00:00     531    3.1      45   -2.1      205.8   97.3    3.5  146.1   -6.0   109.1
 04 FEB  1  32:12:00:00     522    2.9      45   -2.8      205.9   97.3    3.5  146.1   -6.0   108.6
 04 FEB  1  32:13:00:00     519    3.3      42   -3.4      205.9   97.3    3.4  146.1   -6.0   108.0
 04 FEB  1  32:14:00:00     503    3.6      41   -0.9      205.9   97.4    3.4  146.1   -6.0   107.5
 04 FEB  1  32:15:00:00     487    4.2      37   -1.9      206.0   97.4    3.4  146.1   -6.0   106.9
 04 FEB  1  32:16:00:00     507    4.2      40   -3.5      206.0   97.5    3.3  146.1   -6.0   106.4
 04 FEB  1  32:17:00:00     494    3.8      37   -3.7      206.1   97.5    3.3  146.1   -6.0   105.8
 04 FEB  1  32:18:00:00     499    2.9      38   -2.9      206.1   97.6    3.3  146.1   -6.0   105.3
 04 FEB  1  32:19:00:00     486    3.7      36   -2.8      206.1   97.6    3.3  146.1   -6.0   104.7
 04 FEB  1  32:20:00:00     473    4.8      34   -2.5      206.2   97.7    3.2  146.1   -6.0   104.2
 04 FEB  1  32:21:00:00     473    5.2      34   -2.0      206.2   97.7    3.2  146.1   -6.0   103.6
 04 FEB  1  32:22:00:00     499    4.5      41   -0.1      206.2   97.8    3.2  146.1   -6.0   103.1
 04 FEB  1  32:23:00:00     484    4.0      38    0.8      206.3   97.8    3.2  146.1   -6.0   102.5
 04 FEB  2  33:00:00:00     483    5.7      36   -1.5      206.3   97.9    3.1  146.1   -6.0   102.0
 04 FEB  2  33:01:00:00     547    4.4      37    1.9      206.3   97.9    3.1  146.1   -6.0   101.4
 04 FEB  2  33:02:00:00     532    4.4      37    3.5      206.4   98.0    3.1  146.1   -6.0   100.9
 04 FEB  2  33:03:00:00     483    5.3      36    0.3      206.4   98.0    3.1  146.1   -6.0   100.3
 04 FEB  2  33:04:00:00     521    6.0      43   -0.6      206.5   98.1    3.0  146.1   -6.0    99.8
 04 FEB  2  33:05:00:00     495    7.4      37   -4.7      206.5   98.1    3.0  146.1   -6.0    99.2
 04 FEB  2  33:06:00:00     525    6.6      40   -1.8      206.5   98.1    3.0  146.1   -6.1    98.7
 04 FEB  2  33:07:00:00     495    4.8      39   -1.7      206.6   98.2    2.9  146.1   -6.1    98.1
 04 FEB  2  33:08:00:00     544    4.3      43   -0.1      206.6   98.2    2.9  146.1   -6.1    97.6
 04 FEB  2  33:09:00:00     573    4.8      45   -2.0      206.6   98.3    2.9  146.1   -6.1    97.0
 04 FEB  2  33:10:00:00     572    5.0      44   -0.9      206.7   98.3    2.9  146.1   -6.1    96.5
 04 FEB  2  33:11:00:00     574    5.8      44   -1.6      206.7   98.4    2.8  146.1   -6.1    95.9
 04 FEB  2  33:12:00:00     570    5.3      44   -0.3      206.8   98.4    2.8  146.1   -6.1    95.4
 04 FEB  2  33:13:00:00     556    4.0      44   -1.3      206.8   98.4    2.8  146.1   -6.1    94.8
 04 FEB  2  33:14:00:00     561    4.1      43   -2.0      206.8   98.5    2.8  146.1   -6.1    94.3
 04 FEB  2  33:15:00:00     575    5.6      44   -3.1      206.9   98.5    2.7  146.1   -6.1    93.7
 04 FEB  2  33:16:00:00     569    4.8      44   -1.5      206.9   98.6    2.7  146.1   -6.1    93.2
 04 FEB  2  33:17:00:00     566    5.0      44    0.9      206.9   98.6    2.7  146.1   -6.1    92.6
 04 FEB  2  33:18:00:00     581    4.4      47    0.8      207.0   98.7    2.6  146.1   -6.1    92.1
 04 FEB  2  33:19:00:00     578    6.3      44   -0.2      207.0   98.7    2.6  146.1   -6.1    91.5
 04 FEB  2  33:20:00:00     575    4.8      45   -0.1      207.1   98.7    2.6  146.1   -6.1    91.0
 04 FEB  2  33:21:00:00     580    4.8      44    0.7      207.1   98.8    2.6  146.1   -6.1    90.4
 04 FEB  2  33:22:00:00     598    6.0      46    2.6      207.1   98.8    2.5  146.1   -6.1    89.9
 04 FEB  2  33:23:00:00     594    5.5      46    0.1      207.2   98.9    2.5  146.1   -6.1    89.3
 04 FEB  3  34:00:00:00     599    5.8      47    1.6      207.2   98.9    2.5  146.1   -6.1    88.8
 04 FEB  3  34:01:00:00     627    3.9      50   -1.4      207.2   98.9    2.4  146.1   -6.1    88.2
 04 FEB  3  34:02:00:00     631    3.9      49   -0.3      207.3   99.0    2.4  146.1   -6.1    87.7
 04 FEB  3  34:03:00:00     623    5.3      47    3.4      207.3   99.0    2.4  146.1   -6.1    87.1
 04 FEB  3  34:04:00:00     612    5.1      49    1.8      207.4   99.1    2.4  146.1   -6.1    86.6
 04 FEB  3  34:05:00:00     606    4.0      48   -0.3      207.4   99.1    2.3  146.1   -6.1    86.0
 04 FEB  3  34:06:00:00     641    2.8      51   -1.1      207.4   99.1    2.3  146.1   -6.1    85.5
 04 FEB  3  34:07:00:00     609    3.7      48    0.5      207.5   99.2    2.3  146.1   -6.1    84.9
 04 FEB  3  34:08:00:00     616    3.2      49    1.2      207.5   99.2    2.3  146.1   -6.1    84.4
 04 FEB  3  34:09:00:00     605    2.8      48    0.1      207.6   99.2    2.2  146.1   -6.1    83.8
 04 FEB  3  34:10:00:00     611    2.3      49   -0.6      207.6   99.3    2.2  146.1   -6.1    83.3
 04 FEB  3  34:11:00:00     596    3.3      46    0.4      207.6   99.3    2.2  146.1   -6.1    82.7
 04 FEB  3  34:12:00:00     605    3.0      48   -1.7      207.7   99.4    2.1  146.1   -6.1    82.2
 04 FEB  3  34:13:00:00     607    3.1      48   -1.1      207.7   99.4    2.1  146.1   -6.1    81.6
 04 FEB  3  34:14:00:00     607    4.0      47   -3.0      207.8   99.4    2.1  146.1   -6.1    81.1
 04 FEB  3  34:15:00:00     668    2.7      50   -0.6      207.8   99.5    2.1  146.1   -6.1    80.5
 04 FEB  3  34:16:00:00     609    3.9      49   -1.9      207.8   99.5    2.0  146.1   -6.2    80.0
 04 FEB  3  34:17:00:00     597    3.6      46   -0.7      207.9   99.5    2.0  146.1   -6.2    79.4
 04 FEB  3  34:18:00:00     584    3.9      43    0.7      207.9   99.6    2.0  146.1   -6.2    78.9
 04 FEB  3  34:19:00:00     584    3.5      42    0.3      208.0   99.6    2.0  146.1   -6.2    78.3
 04 FEB  3  34:20:00:00     581    3.9      42   -0.6      208.0   99.6    1.9  146.1   -6.2    77.8
 04 FEB  3  34:21:00:00     599    3.2      45    1.6      208.0   99.7    1.9  146.1   -6.2    77.2
 04 FEB  3  34:22:00:00     593    3.7      44   -1.4      208.1   99.7    1.9  146.1   -6.2    76.7
 04 FEB  3  34:23:00:00     589    4.0      44   -2.8      208.1   99.7    1.8  146.1   -6.2    76.1
 04 FEB  4  35:00:00:00     590    2.9      43   -2.3      208.2   99.8    1.8  146.1   -6.2    75.6
 04 FEB  4  35:01:00:00     583    3.4      42    1.0      208.2   99.8    1.8  146.1   -6.2    75.0
 04 FEB  4  35:02:00:00     573    2.9      39    0.6      208.3   99.8    1.8  146.1   -6.2    74.5
 04 FEB  4  35:03:00:00     578    2.2      40    0.8      208.3   99.9    1.7  146.1   -6.2    73.9
 04 FEB  4  35:04:00:00     580    1.9      41   -0.2      208.3   99.9    1.7  146.1   -6.2    73.4
 04 FEB  4  35:05:00:00     573    2.2      39   -1.4      208.4   99.9    1.7  146.1   -6.2    72.8
 04 FEB  4  35:06:00:00     571    2.1      37   -0.9      208.4  100.0    1.6  146.1   -6.2    72.3
 04 FEB  4  35:07:00:00     573    2.1      38   -0.6      208.5  100.0    1.6  146.1   -6.2    71.7
 04 FEB  4  35:08:00:00     567    1.9      36    0.3      208.5  100.0    1.6  146.1   -6.2    71.2
 04 FEB  4  35:09:00:00     560    2.0      34   -2.8      208.5  100.1    1.6  146.1   -6.2    70.6
 04 FEB  4  35:10:00:00     566    2.1      35   -5.4      208.6  100.1    1.5  146.1   -6.2    70.1
 04 FEB  4  35:11:00:00     563    1.6      36   -4.3      208.6  100.1    1.5  146.1   -6.2    69.5
 04 FEB  4  35:12:00:00     563    1.0      39   -3.5      208.7  100.2    1.5  146.1   -6.2    69.0
 04 FEB  4  35:13:00:00     572    1.5      38   -4.6      208.7  100.2    1.5  146.1   -6.2    68.4
 04 FEB  4  35:14:00:00     565    1.1      39   -1.5      208.8  100.2    1.4  146.1   -6.2    67.9
 04 FEB  4  35:15:00:00     559    0.9      42    1.6      208.8  100.3    1.4  146.1   -6.2    67.3
 04 FEB  4  35:16:00:00     561    0.9      44   -0.3      208.8  100.3    1.4  146.1   -6.2    66.8
 04 FEB  4  35:17:00:00     557    0.7      45   -0.9      208.9  100.3    1.3  146.1   -6.2    66.2
 04 FEB  4  35:18:00:00     555    0.8      46   -2.1      208.9  100.3    1.3  146.1   -6.2    65.7
 04 FEB  4  35:19:00:00     551    1.0      47   -1.4      209.0  100.4    1.3  146.1   -6.2    65.1
 04 FEB  4  35:20:00:00     559    2.1      40   -1.3      209.0  100.4    1.3  146.1   -6.2    64.6
 04 FEB  4  35:21:00:00     568    1.7      43   -1.0      209.1  100.4    1.2  146.1   -6.2    64.0
 04 FEB  4  35:22:00:00     532    1.7      47   -1.1      209.1  100.5    1.2  146.1   -6.2    63.5
 04 FEB  4  35:23:00:00     559    0.9      43   -1.4      209.1  100.5    1.2  146.1   -6.2    62.9
 04 FEB  5  36:00:00:00     557    1.6      42   -2.6      209.2  100.5    1.1  146.1   -6.2    62.4
 04 FEB  5  36:01:00:00     563    1.5      45   -3.9      209.2  100.5    1.1  146.1   -6.2    61.8
 04 FEB  5  36:02:00:00     553    1.6      49   -2.9      209.3  100.6    1.1  146.1   -6.2    61.3
 04 FEB  5  36:03:00:00     557    2.6      44   -3.4      209.3  100.6    1.1  146.1   -6.3    60.7
 04 FEB  5  36:04:00:00     556    2.6      48   -1.1      209.4  100.6    1.0  146.1   -6.3    60.2
 04 FEB  5  36:05:00:00     575    2.1      50    0.4      209.4  100.7    1.0  146.1   -6.3    59.6
 04 FEB  5  36:06:00:00     553    2.9      51    0.6      209.5  100.7    1.0  146.1   -6.3    59.1
 04 FEB  5  36:07:00:00     553    2.2      58   -0.8      209.5  100.7    1.0  146.1   -6.3    58.5
 04 FEB  5  36:08:00:00     546    2.7      55    0.5      209.5  100.7    0.9  146.1   -6.3    58.0
 04 FEB  5  36:09:00:00     540    3.1      50    1.1      209.6  100.8    0.9  146.1   -6.3    57.4
 04 FEB  5  36:10:00:00     556    2.6      53   -0.3      209.6  100.8    0.9  146.1   -6.3    56.9
 04 FEB  5  36:11:00:00     539    3.1      50   -1.5      209.7  100.8    0.8  146.1   -6.3    56.4
 04 FEB  5  36:12:00:00     529    3.7      49   -0.4      209.7  100.8    0.8  146.1   -6.3    55.8
 04 FEB  5  36:13:00:00     520    3.7      49   -1.8      209.8  100.9    0.8  146.1   -6.3    55.3
 04 FEB  5  36:14:00:00     517    3.9      48   -0.6      209.8  100.9    0.8  146.1   -6.3    54.7
 04 FEB  5  36:15:00:00     522    4.2      47   -1.7      209.9  100.9    0.7  146.1   -6.3    54.2
 04 FEB  5  36:16:00:00     521    3.8      46   -0.6      209.9  100.9    0.7  146.2   -6.3    53.6
 04 FEB  5  36:17:00:00     491    3.6      44   -1.1      210.0  101.0    0.7  146.2   -6.3    53.1
 04 FEB  5  36:18:00:00     502    3.6      42   -0.8      210.0  101.0    0.6  146.2   -6.3    52.5
 04 FEB  5  36:19:00:00     517    3.9      44   -1.3      210.0  101.0    0.6  146.2   -6.3    52.0
 04 FEB  5  36:20:00:00     558    3.1      46   -1.6      210.1  101.0    0.6  146.2   -6.3    51.4
 04 FEB  5  36:21:00:00     568    2.1      46   -1.7      210.1  101.1    0.6  146.2   -6.3    50.9
 04 FEB  5  36:22:00:00     562    2.5      45   -1.0      210.2  101.1    0.5  146.2   -6.3    50.3
 04 FEB  5  36:23:00:00     570    2.8      45    0.6      210.2  101.1    0.5  146.2   -6.3    49.8
 04 FEB  6  37:00:00:00     557    2.9      43    1.0      210.3  101.1    0.5  146.2   -6.3    49.2
 04 FEB  6  37:01:00:00     561    3.2      45    2.3      210.3  101.1    0.5  146.2   -6.3    48.7
 04 FEB  6  37:02:00:00     566    2.9      45    3.7      210.4  101.2    0.4  146.2   -6.3    48.1
 04 FEB  6  37:03:00:00     583    2.0      48    0.6      210.4  101.2    0.4  146.2   -6.3    47.6
 04 FEB  6  37:04:00:00     585    1.8      47   -1.1      210.5  101.2    0.4  146.2   -6.3    47.0
 04 FEB  6  37:05:00:00     610    1.8      49   -1.2      210.5  101.2    0.3  146.2   -6.3    46.5
 04 FEB  6  37:06:00:00     644    1.7      53   -0.4      210.6  101.2    0.3  146.2   -6.3    45.9
 04 FEB  6  37:07:00:00     633    2.3      51    0.8      210.6  101.3    0.3  146.2   -6.3    45.4
 04 FEB  6  37:08:00:00     611    2.3      49    0.5      210.6  101.3    0.3  146.2   -6.3    44.8
 04 FEB  6  37:09:00:00     632    1.7      50   -2.2      210.7  101.3    0.2  146.2   -6.3    44.3
 04 FEB  6  37:10:00:00     613    2.0      49   -0.5      210.7  101.3    0.2  146.2   -6.3    43.7
 04 FEB  6  37:11:00:00     600    2.7      46    1.6      210.8  101.3    0.2  146.2   -6.3    43.2
 04 FEB  6  37:12:00:00     607    2.5      48   -0.7      210.8  101.4    0.1  146.2   -6.3    42.6
 04 FEB  6  37:13:00:00     581    2.5      42    0.0      210.9  101.4    0.1  146.2   -6.3    42.1
 04 FEB  6  37:14:00:00     580    2.7      41   -1.0      210.9  101.4    0.1  146.2   -6.3    41.5
 04 FEB  6  37:15:00:00     573    2.8      39   -0.6      211.0  101.4    0.1  146.2   -6.3    41.0
 04 FEB  6  37:16:00:00     564    2.7      36    1.3      211.0  101.4    0.0  146.2   -6.4    40.4
 04 FEB  6  37:17:00:00     558    3.0      34    2.3      211.1  101.5    0.0  146.2   -6.4    39.9
 04 FEB  6  37:18:00:00     558    2.8      36    2.9      211.1  101.5    0.0  146.2   -6.4    39.3
 04 FEB  6  37:19:00:00     558    1.9      40    0.6      211.2  101.5   -0.1  146.2   -6.4    38.8
 04 FEB  6  37:20:00:00     552    1.9      38    1.0      211.2  101.5   -0.1  146.2   -6.4    38.2
 04 FEB  6  37:21:00:00     547    2.9      41    2.5      211.3  101.5   -0.1  146.2   -6.4    37.7
 04 FEB  6  37:22:00:00     542    2.7      41    1.4      211.3  101.5   -0.1  146.2   -6.4    37.1
 04 FEB  6  37:23:00:00     544    2.5      40   -0.9      211.4  101.6   -0.2  146.2   -6.4    36.6
 04 FEB  7  38:00:00:00     545    2.2      39   -1.3      211.4  101.6   -0.2  146.2   -6.4    36.0
 04 FEB  7  38:01:00:00     544    1.9      39   -1.8      211.5  101.6   -0.2  146.2   -6.4    35.5
 04 FEB  7  38:02:00:00     546    1.9      37   -0.7      211.5  101.6   -0.3  146.2   -6.4    34.9
 04 FEB  7  38:03:00:00     543    1.7      37    0.3      211.6  101.6   -0.3  146.2   -6.4    34.4
 04 FEB  7  38:04:00:00     514    1.5      39   -0.6      211.6  101.6   -0.3  146.2   -6.4    33.8
 04 FEB  7  38:05:00:00     495    1.9      36   -0.6      211.7  101.7   -0.3  146.2   -6.4    33.3
 04 FEB  7  38:06:00:00     491    2.2      35   -0.9      211.7  101.7   -0.4  146.2   -6.4    32.7
 04 FEB  7  38:07:00:00     503    1.9      37   -0.1      211.8  101.7   -0.4  146.2   -6.4    32.2
 04 FEB  7  38:08:00:00     483    2.4      33   -1.4      211.8  101.7   -0.4  146.2   -6.4    31.6
 04 FEB  7  38:09:00:00     471    2.8      31   -1.6      211.9  101.7   -0.4  146.2   -6.4    31.1
 04 FEB  7  38:10:00:00     469    2.7      30   -2.3      211.9  101.7   -0.5  146.2   -6.4    30.5
 04 FEB  7  38:11:00:00     469    2.5      32   -1.7      212.0  101.8   -0.5  146.2   -6.4    30.0
 04 FEB  7  38:12:00:00     468    3.2      31   -0.3      212.0  101.8   -0.5  146.2   -6.4    29.4
 04 FEB  7  38:13:00:00     467    3.5      30   -1.2      212.1  101.8   -0.6  146.2   -6.4    28.9
 04 FEB  7  38:14:00:00     465    2.8      30    0.0      212.1  101.8   -0.6  146.2   -6.4    28.3
 04 FEB  7  38:15:00:00     464    3.1      30   -1.2      212.2  101.8   -0.6  146.2   -6.4    27.8
 04 FEB  7  38:16:00:00     458    3.5      27   -1.6      212.2  101.8   -0.6  146.2   -6.4    27.2
 04 FEB  7  38:17:00:00     457    3.5      26   -1.1      212.3  101.8   -0.7  146.2   -6.4    26.7
 04 FEB  7  38:18:00:00     454    3.6      26   -1.3      212.3  101.8   -0.7  146.2   -6.4    26.1
 04 FEB  7  38:19:00:00     447    3.0      23   -1.6      212.4  101.9   -0.7  146.2   -6.4    25.6
 04 FEB  7  38:20:00:00     442    2.5      32   -0.5      212.4  101.9   -0.8  146.2   -6.4    25.0
 04 FEB  7  38:21:00:00     449    3.2      29   -1.6      212.5  101.9   -0.8  146.2   -6.4    24.5
 04 FEB  7  38:22:00:00     436    2.8      33   -0.7      212.5  101.9   -0.8  146.2   -6.4    23.9
 04 FEB  7  38:23:00:00     425    2.8      33    2.5      212.6  101.9   -0.8  146.2   -6.4    23.4
 04 FEB  8  39:00:00:00     417    2.2      34    0.6      212.6  101.9   -0.9  146.2   -6.4    22.8
 04 FEB  8  39:01:00:00     412    2.6      34    0.2      212.7  101.9   -0.9  146.2   -6.4    22.3
 04 FEB  8  39:02:00:00     413    3.0      34    0.4      212.7  101.9   -0.9  146.2   -6.4    21.7
 04 FEB  8  39:03:00:00     408    3.3      33    0.9      212.8  102.0   -1.0  146.2   -6.4    21.2
 04 FEB  8  39:04:00:00     390    3.7      28    0.3      212.8  102.0   -1.0  146.2   -6.4    20.6
 04 FEB  8  39:05:00:00     403    3.3      30    0.6      212.9  102.0   -1.0  146.2   -6.4    20.1
 04 FEB  8  39:06:00:00     388    3.7      27    1.1      212.9  102.0   -1.0  146.2   -6.4    19.5
 04 FEB  8  39:07:00:00     384    3.8      26   -2.3      213.0  102.0   -1.1  146.2   -6.5    19.0
 04 FEB  8  39:08:00:00     387    3.8      26    0.8      213.0  102.0   -1.1  146.2   -6.5    18.4
 04 FEB  8  39:09:00:00     376    4.0      24   -0.5      213.1  102.0   -1.1  146.2   -6.5    17.9
 04 FEB  8  39:10:00:00     373    4.5      23   -2.3      213.1  102.0   -1.2  146.2   -6.5    17.3
 04 FEB  8  39:11:00:00     377    3.7      25   -0.2      213.2  102.0   -1.2  146.2   -6.5    16.8
 04 FEB  8  39:12:00:00     365    3.9      22    0.1      213.2  102.0   -1.2  146.2   -6.5    16.2
 04 FEB  8  39:13:00:00     386    3.4      26    0.9      213.3  102.1   -1.2  146.2   -6.5    15.7
 04 FEB  8  39:14:00:00     390    5.6      26    2.9      213.3  102.1   -1.3  146.2   -6.5    15.1
 04 FEB  8  39:15:00:00     381    7.4      23    3.9      213.4  102.1   -1.3  146.2   -6.5    14.6
 04 FEB  8  39:16:00:00     387    7.8      25    3.7      213.4  102.1   -1.3  146.2   -6.5    14.0
 04 FEB  8  39:17:00:00     427    5.4      32    3.1      213.5  102.1   -1.4  146.2   -6.5    13.5
 04 FEB  8  39:18:00:00     439    4.7      32    1.6      213.6  102.1   -1.4  146.2   -6.5    12.9
 04 FEB  8  39:19:00:00     442    4.6      32    1.5      213.6  102.1   -1.4  146.2   -6.5    12.4
 04 FEB  8  39:20:00:00     453    5.2      30   -0.6      213.7  102.1   -1.4  146.2   -6.5    11.8
 04 FEB  8  39:21:00:00     448    5.1      31    0.4      213.7  102.1   -1.5  146.2   -6.5    11.3
 04 FEB  8  39:22:00:00     447    4.0      29    0.4      213.8  102.1   -1.5  146.2   -6.5    10.7
 04 FEB  8  39:23:00:00     446    3.6      29    0.0      213.8  102.1   -1.5  146.2   -6.5    10.2
 04 FEB  9  40:00:00:00     431    3.3      32   -0.9      213.9  102.1   -1.6  146.2   -6.5     9.6
 04 FEB  9  40:01:00:00     412    1.9      35   -1.2      213.9  102.1   -1.6  146.2   -6.5     9.1
 04 FEB  9  40:02:00:00     406    2.1      33   -1.7      214.0  102.2   -1.6  146.2   -6.5     8.5
 04 FEB  9  40:03:00:00     387    2.6      28   -0.7      214.0  102.2   -1.6  146.2   -6.5     8.0
 04 FEB  9  40:04:00:00     400    3.6      29   -4.6      214.1  102.2   -1.7  146.2   -6.5     7.4
 04 FEB  9  40:05:00:00     404    3.4      30   -3.8      214.1  102.2   -1.7  146.2   -6.5     6.9
 04 FEB  9  40:06:00:00     397    3.2      30   -3.1      214.2  102.2   -1.7  146.2   -6.5     6.3
 04 FEB  9  40:07:00:00     401    2.6      31   -1.1      214.3  102.2   -1.8  146.2   -6.5     5.8
 04 FEB  9  40:08:00:00     408    2.2      32   -1.5      214.3  102.2   -1.8  146.2   -6.5     5.2
 04 FEB  9  40:09:00:00     410    2.4      33   -2.9      214.4  102.2   -1.8  146.2   -6.5     4.7
 04 FEB  9  40:10:00:00     398    3.4      31   -2.4      214.4  102.2   -1.8  146.2   -6.5     4.1
 04 FEB  9  40:11:00:00     404    4.0      29   -6.0      214.5  102.2   -1.9  146.2   -6.5     3.6
 04 FEB  9  40:12:00:00     433    5.5      26   -7.1      214.5  102.2   -1.9  146.2   -6.5     3.0
 04 FEB  9  40:13:00:00     426    3.0      29   -4.9      214.6  102.2   -1.9  146.2   -6.5     2.5
 04 FEB  9  40:14:00:00     414    2.1      30   -4.0      214.6  102.2   -1.9  146.2   -6.5     1.9
 04 FEB  9  40:15:00:00     422    1.9      33   -2.8      214.7  102.2   -2.0  146.2   -6.5     1.4
 04 FEB  9  40:16:00:00     440    1.8      29   -4.0      214.7  102.2   -2.0  146.2   -6.5     0.8
 04 FEB  9  40:17:00:00     436    1.3      29   -3.1      214.8  102.2   -2.0  146.2   -6.5     0.3
 04 FEB  9  40:18:00:00     440    1.8      26   -4.6      214.9  102.2   -2.1  146.2   -6.5   359.7
 04 FEB  9  40:19:00:00     438    3.2      24   -6.5      214.9  102.2   -2.1  146.2   -6.5   359.2